Time;durP1;ratioP1;P1;durP2;ratioP2;P2;SDS_P1;SDS_P2;PMS_P1;PMS_P2;Temp;Humidity;BMP_temperature;BMP_pressure;BME280_temperature;BME280_humidity;BME280_pressure;Samples;Min_cycle;Max_cycle;Signal;HPM_P1;HPM_P2
2022/12/07 00:01:40;;;;;;;26.90;16.42;;;;;;;2.30;78.17;98032.22;5049938;28;20033;-76
2022/12/07 00:04:07;;;;;;;22.45;11.50;;;;;;;2.29;78.20;98033.28;5049412;28;20045;-76
2022/12/07 00:06:36;;;;;;;21.20;11.52;;;;;;;2.28;78.41;98028.94;5050225;28;20119;-76
2022/12/07 00:09:09;;;;;;;22.20;11.82;;;;;;;2.29;78.29;98016.25;5048019;28;20098;-77
2022/12/07 00:11:35;;;;;;;21.25;11.75;;;;;;;2.29;78.38;98021.66;5047926;28;20508;-76
2022/12/07 00:14:04;;;;;;;22.45;12.63;;;;;;;2.30;77.82;98017.88;5049151;28;20056;-76
2022/12/07 00:16:32;;;;;;;21.17;12.90;;;;;;;2.32;78.43;98019.25;5049737;28;20090;-76
2022/12/07 00:18:57;;;;;;;23.73;13.77;;;;;;;2.34;78.58;98013.59;5050108;28;20087;-76
2022/12/07 00:21:32;;;;;;;22.10;12.13;;;;;;;2.35;78.82;98015.22;5049599;28;20025;-76
2022/12/07 00:23:57;;;;;;;22.08;13.77;;;;;;;2.32;78.69;98011.13;5050109;28;20048;-76
2022/12/07 00:26:28;;;;;;;25.88;13.88;;;;;;;2.31;78.09;98012.19;5050069;28;20419;-76
2022/12/07 00:28:59;;;;;;;21.83;12.82;;;;;;;2.28;78.01;98015.41;5049483;28;20021;-76
2022/12/07 00:31:28;;;;;;;23.02;12.32;;;;;;;2.30;78.68;98009.75;5049616;28;20028;-76
2022/12/07 00:33:53;;;;;;;21.75;12.10;;;;;;;2.31;77.98;98005.97;5050415;28;20035;-78
2022/12/07 00:36:21;;;;;;;25.75;13.68;;;;;;;2.31;78.01;98001.38;5049872;28;20021;-76
2022/12/07 00:38:46;;;;;;;22.55;13.40;;;;;;;2.28;78.31;97996.47;5049287;28;20382;-75
2022/12/07 00:41:16;;;;;;;20.55;12.23;;;;;;;2.30;78.41;97997.03;5049269;28;20035;-76
2022/12/07 00:43:43;;;;;;;21.13;12.32;;;;;;;2.30;78.22;97997.03;5050446;28;20079;-77
2022/12/07 00:46:09;;;;;;;23.48;13.23;;;;;;;2.31;78.27;97998.66;5049768;28;20473;-76
2022/12/07 00:48:35;;;;;;;21.83;12.07;;;;;;;2.31;78.49;97992.44;5048150;28;20112;-77
2022/12/07 00:51:02;;;;;;;21.17;12.20;;;;;;;2.31;78.70;97998.66;5049863;28;20454;-77
2022/12/07 00:53:28;;;;;;;23.17;12.27;;;;;;;2.33;78.15;97991.09;5049667;28;20045;-77
2022/12/07 00:55:55;;;;;;;20.38;11.63;;;;;;;2.34;78.21;97992.75;5048866;28;20075;-78
2022/12/07 00:58:21;;;;;;;20.95;12.13;;;;;;;2.34;78.55;97995.44;5047595;28;20025;-77
2022/12/07 01:00:46;;;;;;;20.67;12.02;;;;;;;2.34;78.40;98000.06;5048894;28;20432;-77
2022/12/07 01:03:13;;;;;;;20.05;11.68;;;;;;;2.34;79.01;97995.44;5047229;28;20712;-78
2022/12/07 01:05:39;;;;;;;18.55;11.38;;;;;;;2.37;78.30;97992.25;5046156;28;20048;-79
2022/12/07 01:08:05;;;;;;;20.42;12.63;;;;;;;2.41;79.17;97994.44;5048251;28;20592;-78
2022/12/07 01:10:31;;;;;;;21.70;12.90;;;;;;;2.44;79.14;97981.22;5048617;28;20025;-78
2022/12/07 01:12:57;;;;;;;19.95;11.45;;;;;;;2.46;78.25;97989.88;5046869;28;20547;-77
2022/12/07 01:15:22;;;;;;;20.48;11.80;;;;;;;2.49;78.21;97983.97;5049660;28;20037;-78
2022/12/07 01:17:48;;;;;;;24.02;12.40;;;;;;;2.49;78.49;97983.16;5048368;28;20083;-78
2022/12/07 01:20:13;;;;;;;17.67;10.93;;;;;;;2.50;78.94;97984.81;5048271;28;20033;-79
2022/12/07 01:22:40;;;;;;;20.52;11.80;;;;;;;2.52;78.56;97982.66;5049403;28;20078;-79
2022/12/07 01:25:07;;;;;;;20.02;12.02;;;;;;;2.53;79.06;97987.00;5048802;28;20031;-78
2022/12/07 01:27:33;;;;;;;16.15;10.77;;;;;;;2.55;79.24;97982.16;5049582;28;20033;-78
2022/12/07 01:29:59;;;;;;;20.05;11.68;;;;;;;2.57;78.77;97971.03;5048678;28;20029;-77
2022/12/07 01:32:24;;;;;;;17.83;10.73;;;;;;;2.58;78.70;97976.22;5048012;28;20108;-77
2022/12/07 01:34:50;;;;;;;51.22;21.60;;;;;;;2.60;78.41;97984.06;5051315;28;20503;-77
2022/12/07 01:37:15;;;;;;;42.50;17.88;;;;;;;2.59;78.32;97979.72;5051066;28;20109;-77
2022/12/07 01:39:41;;;;;;;35.83;15.40;;;;;;;2.60;78.76;97981.38;5050891;28;20029;-77
2022/12/07 01:42:10;;;;;;;73.22;21.95;;;;;;;2.60;78.82;97970.53;5052378;28;20056;-77
2022/12/07 01:45:33;;;;;;;122.07;29.60;;;;;;;2.57;78.34;97980.00;5052400;28;20053;-77
2022/12/07 01:47:58;;;;;;;109.47;27.58;;;;;;;2.61;78.30;97985.72;5047828;28;20091;-78
2022/12/07 01:50:26;;;;;;;47.10;17.10;;;;;;;2.61;78.52;97983.84;5049632;28;20033;-77
2022/12/07 01:52:56;;;;;;;27.95;12.70;;;;;;;2.61;79.29;97975.72;5051080;28;20118;-77
2022/12/07 01:55:23;;;;;;;23.17;11.83;;;;;;;2.64;79.10;97975.19;5052826;28;20032;-77
2022/12/07 01:57:51;;;;;;;18.88;11.85;;;;;;;2.67;78.53;97973.88;5052250;28;20057;-78
2022/12/07 02:00:17;;;;;;;18.92;12.23;;;;;;;2.71;78.56;97976.84;5051842;28;20100;-77
2022/12/07 02:02:53;;;;;;;16.83;10.73;;;;;;;2.73;79.41;97978.25;5050841;28;20033;-77
2022/12/07 02:05:19;;;;;;;20.17;12.93;;;;;;;2.76;78.96;97985.88;5050442;28;20494;-77
2022/12/07 02:07:47;;;;;;;22.25;12.77;;;;;;;2.79;79.28;97981.81;5051405;28;20525;-77
2022/12/07 02:10:13;;;;;;;20.25;12.30;;;;;;;2.78;78.41;97980.19;5049917;28;20033;-78
2022/12/07 02:12:39;;;;;;;22.50;13.90;;;;;;;2.79;78.98;97979.09;5051666;28;20153;-76
2022/12/07 02:15:05;;;;;;;25.40;14.02;;;;;;;2.79;79.19;97971.81;5051659;28;20043;-76
2022/12/07 02:17:58;;;;;;;23.42;14.63;;;;;;;2.79;79.10;97969.09;5050882;28;20025;-79
2022/12/07 02:20:37;;;;;;;23.38;14.50;;;;;;;2.81;79.11;97968.84;5048510;28;20457;-78
2022/12/07 02:23:35;;;;;;;22.67;13.55;;;;;;;2.81;79.04;97982.38;5051208;28;20109;-79
2022/12/07 02:26:06;;;;;;;23.92;13.60;;;;;;;2.83;78.38;97975.66;5050434;28;20033;-81
2022/12/07 02:28:35;;;;;;;21.13;12.75;;;;;;;2.82;78.92;97982.13;5051246;28;20025;-79
2022/12/07 02:31:14;;;;;;;19.23;11.93;;;;;;;2.81;79.07;97980.50;5048719;28;20013;-80
2022/12/07 02:33:56;;;;;;;23.47;13.60;;;;;;;2.83;78.91;97981.06;5052083;28;20416;-80
2022/12/07 02:36:28;;;;;;;24.27;16.60;;;;;;;2.83;79.23;97986.47;5051784;28;20404;-80
2022/12/07 02:39:07;;;;;;;22.63;13.40;;;;;;;2.80;78.20;97989.69;5051881;28;20436;-80
2022/12/07 02:41:52;;;;;;;20.27;12.93;;;;;;;2.79;78.66;97987.22;5050773;28;20036;-80
2022/12/07 02:44:22;;;;;;;17.88;11.02;;;;;;;2.78;79.18;97975.59;5051732;28;20067;-80
2022/12/07 02:46:56;;;;;;;18.85;11.57;;;;;;;2.77;78.98;97978.53;5050896;28;20036;-80
2022/12/07 02:49:24;;;;;;;18.38;10.55;;;;;;;2.76;78.50;97976.91;5051366;28;20033;-80
2022/12/07 02:51:50;;;;;;;17.77;10.45;;;;;;;2.73;78.86;97978.25;5050608;28;20032;-80
2022/12/07 02:54:20;;;;;;;20.27;11.82;;;;;;;2.71;78.33;97977.69;5051557;28;20045;-80
2022/12/07 02:56:48;;;;;;;;;;;;;;;2.70;78.54;97976.06;5051672;28;20029;-80
2022/12/07 02:59:17;;;;;;;16.08;9.55;;;;;;;2.64;79.02;97972.50;5050907;28;19921;-80
2022/12/07 03:02:15;;;;;;;15.93;9.55;;;;;;;2.62;78.87;97968.41;5050616;28;20064;-80
2022/12/07 03:05:02;;;;;;;16.73;9.82;;;;;;;2.60;78.99;97973.25;5051227;28;20029;-80
2022/12/07 03:07:57;;;;;;;13.23;8.82;;;;;;;2.58;78.17;97970.81;5050060;28;20060;-80
2022/12/07 03:10:40;;;;;;;13.43;8.93;;;;;;;2.60;78.76;97973.25;5051279;28;20040;-80
2022/12/07 03:13:23;;;;;;;15.50;9.45;;;;;;;2.59;78.79;97964.31;5050337;28;20033;-80
2022/12/07 03:15:57;;;;;;;15.18;9.10;;;;;;;2.60;78.58;97967.84;5049374;28;20029;-80
2022/12/07 03:18:26;;;;;;;13.02;8.38;;;;;;;2.60;78.45;97960.53;5050960;28;20037;-80
2022/12/07 03:20:54;;;;;;;13.73;8.30;;;;;;;2.58;78.69;97964.56;5050474;28;20025;-78
2022/12/07 03:23:24;;;;;;;13.20;7.38;;;;;;;2.52;78.50;97964.50;5050705;28;20478;-78
2022/12/07 03:25:55;;;;;;;10.63;7.15;;;;;;;2.50;78.08;97963.13;5051205;28;20037;-79
2022/12/07 03:28:23;;;;;;;14.52;8.05;;;;;;;2.45;78.05;97963.09;5048753;28;20027;-79
2022/12/07 03:30:55;;;;;;;11.13;7.60;;;;;;;2.41;78.13;97960.09;5049989;28;20053;-79
2022/12/07 03:33:43;;;;;;;12.13;7.15;;;;;;;2.36;78.36;97951.91;5049763;28;20052;-79
2022/12/07 03:36:38;;;;;;;13.48;8.50;;;;;;;2.37;78.44;97959.75;5048531;28;20029;-79
2022/12/07 03:39:19;;;;;;;12.98;8.30;;;;;;;2.38;78.69;97961.41;5049116;28;20049;-79
2022/12/07 03:41:45;;;;;;;16.05;8.80;;;;;;;2.37;78.95;97957.06;5047804;28;20500;-79
2022/12/07 03:44:10;;;;;;;14.27;8.75;;;;;;;2.39;78.21;97954.09;5046611;28;20032;-79
2022/12/07 03:47:04;;;;;;;13.90;8.63;;;;;;;2.38;78.04;97957.88;5048696;28;20029;-79
2022/12/07 03:49:47;;;;;;;14.75;9.18;;;;;;;2.41;78.93;97945.72;5047991;28;20025;-79
2022/12/07 03:52:23;;;;;;;16.15;9.20;;;;;;;2.43;78.90;97957.94;5049662;28;20064;-79
2022/12/07 03:55:05;;;;;;;17.63;9.68;;;;;;;2.46;78.03;97956.59;5049992;28;20055;-78
2022/12/07 03:57:33;;;;;;;17.40;10.15;;;;;;;2.49;78.33;97959.59;5049922;28;20074;-79
2022/12/07 04:00:00;;;;;;;20.80;11.93;;;;;;;2.50;78.82;97963.13;5047432;28;20017;-79
2022/12/07 04:02:29;;;;;;;19.02;11.10;;;;;;;2.51;78.17;97964.78;5048299;28;20056;-79
2022/12/07 04:04:56;;;;;;;15.35;9.18;;;;;;;2.47;78.05;97959.03;5047886;28;20045;-79
2022/12/07 04:07:21;;;;;;;13.68;8.30;;;;;;;2.44;78.19;97964.16;5047170;28;20059;-79
2022/12/07 04:09:47;;;;;;;14.57;8.07;;;;;;;2.42;78.69;97956.31;5047981;28;20405;-79
2022/12/07 04:12:13;;;;;;;13.85;9.50;;;;;;;2.41;78.61;97964.66;5046518;28;20021;-79
2022/12/07 04:14:38;;;;;;;16.52;9.80;;;;;;;2.38;78.01;97971.41;5048831;28;20025;-79
2022/12/07 04:17:03;;;;;;;14.50;9.30;;;;;;;2.36;78.46;97963.53;5050463;28;20536;-79
2022/12/07 04:19:31;;;;;;;12.48;7.95;;;;;;;2.34;78.70;97959.47;5049155;28;20021;-79
2022/12/07 04:21:58;;;;;;;15.38;8.85;;;;;;;2.31;78.48;97966.19;5050291;28;20102;-79
2022/12/07 04:24:24;;;;;;;10.98;7.32;;;;;;;2.32;78.51;97967.03;5049665;28;20033;-79
2022/12/07 04:26:49;;;;;;;10.43;7.35;;;;;;;2.31;78.63;97963.47;5049961;28;20037;-79
2022/12/07 04:29:16;;;;;;;10.93;6.53;;;;;;;2.30;78.23;97963.75;5049309;28;20059;-79
2022/12/07 04:31:41;;;;;;;9.50;6.72;;;;;;;2.29;78.67;97962.91;5049298;28;20044;-79
2022/12/07 04:34:07;;;;;;;11.38;7.70;;;;;;;2.29;78.01;97957.50;5049909;28;20025;-79
2022/12/07 04:36:34;;;;;;;14.30;8.23;;;;;;;2.28;78.53;97965.88;5049278;28;20041;-79
2022/12/07 04:39:00;;;;;;;13.25;8.30;;;;;;;2.26;78.39;97960.72;5049609;28;20029;-79
2022/12/07 04:41:28;;;;;;;15.18;8.15;;;;;;;2.23;78.61;97964.75;5049247;28;20047;-79
2022/12/07 04:43:55;;;;;;;13.90;7.55;;;;;;;2.20;77.91;97961.75;5049587;28;20045;-79
2022/12/07 04:46:22;;;;;;;15.20;8.85;;;;;;;2.19;78.49;97960.13;5049003;28;20025;-78
2022/12/07 04:48:47;;;;;;;15.57;8.73;;;;;;;2.19;78.44;97960.94;5049085;28;20020;-79
2022/12/07 04:51:17;;;;;;;21.58;10.07;;;;;;;2.17;78.39;97968.47;5049399;28;20579;-79
2022/12/07 04:53:43;;;;;;;22.33;9.50;;;;;;;2.18;78.50;97972.00;5049210;28;20053;-78
2022/12/07 04:56:09;;;;;;;26.02;10.82;;;;;;;2.15;78.48;97965.22;5047702;28;20024;-79
2022/12/07 04:58:34;;;;;;;30.15;11.68;;;;;;;2.16;78.51;97963.34;5049395;28;20086;-78
2022/12/07 05:00:59;;;;;;;30.02;11.15;;;;;;;2.14;78.33;97968.97;5049276;28;20517;-79
2022/12/07 05:03:25;;;;;;;67.70;19.55;;;;;;;2.12;77.69;97975.72;5049477;28;20029;-79
2022/12/07 05:05:50;;;;;;;74.80;23.33;;;;;;;2.08;77.71;97970.81;5048807;28;20035;-78
2022/12/07 05:08:15;;;;;;;53.83;17.73;;;;;;;2.09;78.41;97974.31;5047906;28;20116;-79
2022/12/07 05:10:41;;;;;;;29.77;11.98;;;;;;;2.10;78.18;97970.56;5051311;28;20025;-79
2022/12/07 05:13:06;;;;;;;26.42;10.65;;;;;;;2.10;78.54;97973.25;5052966;28;20465;-79
2022/12/07 05:15:31;;;;;;;31.65;12.85;;;;;;;2.12;78.59;97967.63;5053571;28;20052;-78
2022/12/07 05:17:57;;;;;;;23.75;11.40;;;;;;;2.11;78.43;97969.50;5052842;28;20029;-78
2022/12/07 05:20:22;;;;;;;23.00;11.02;;;;;;;2.11;78.23;97966.78;5053316;28;20055;-79
2022/12/07 05:22:48;;;;;;;26.42;11.02;;;;;;;2.12;78.07;97964.91;5053349;28;20564;-79
2022/12/07 05:25:13;;;;;;;31.33;16.08;;;;;;;2.11;78.16;97972.19;5052988;28;20028;-79
2022/12/07 05:27:39;;;;;;;26.50;12.77;;;;;;;2.11;78.37;97968.69;5053002;28;20033;-79
2022/12/07 05:30:05;;;;;;;16.83;10.32;;;;;;;2.11;77.74;97969.50;5051633;28;20056;-79
2022/12/07 05:32:30;;;;;;;14.60;8.98;;;;;;;2.10;77.95;97967.03;5053006;28;20108;-79
2022/12/07 05:34:56;;;;;;;14.50;8.23;;;;;;;2.12;77.84;97973.03;5053013;28;20100;-79
2022/12/07 05:37:21;;;;;;;13.98;7.88;;;;;;;2.07;78.19;97963.78;5052703;28;20021;-78
2022/12/07 05:39:46;;;;;;;13.88;8.07;;;;;;;2.08;78.63;97965.41;5052788;28;20063;-79
2022/12/07 05:42:12;;;;;;;12.65;7.70;;;;;;;2.08;78.28;97970.00;5052540;28;20385;-79
2022/12/07 05:44:39;;;;;;;12.65;7.40;;;;;;;2.05;78.09;97973.19;5052691;28;20029;-79
2022/12/07 05:47:04;;;;;;;12.98;8.48;;;;;;;2.03;78.16;97976.16;5052119;28;20162;-79
2022/12/07 05:49:30;;;;;;;13.77;8.00;;;;;;;2.01;78.65;97963.97;5052424;28;20085;-78
2022/12/07 05:51:56;;;;;;;14.88;8.45;;;;;;;1.97;78.10;97960.94;5052755;28;20029;-79
2022/12/07 05:54:21;;;;;;;14.30;7.95;;;;;;;1.94;78.30;97961.44;5053137;28;20149;-78
2022/12/07 05:56:47;;;;;;;13.60;7.50;;;;;;;1.94;78.65;97972.25;5052856;28;20036;-79
2022/12/07 05:59:27;;;;;;;14.27;8.30;;;;;;;1.90;78.03;97971.13;5052386;28;20044;-78
2022/12/07 06:01:59;;;;;;;17.50;9.27;;;;;;;1.92;78.23;97974.41;5052693;28;20029;-78
2022/12/07 06:04:27;;;;;;;12.18;7.35;;;;;;;1.93;78.62;97970.63;5053088;28;20798;-78
2022/12/07 06:06:53;;;;;;;14.20;8.52;;;;;;;1.91;78.13;97970.91;5051687;28;20033;-79
2022/12/07 06:09:21;;;;;;;11.68;7.40;;;;;;;1.91;78.34;97972.75;5052018;28;20031;-78
2022/12/07 06:14:30;;;;;;;19.63;9.32;;;;;;;1.89;78.32;97973.03;5053602;28;20052;-78
2022/12/07 06:16:56;;;;;;;16.30;9.05;;;;;;;1.88;78.24;97975.97;5052933;28;20481;-79
2022/12/07 06:19:21;;;;;;;22.83;9.95;;;;;;;1.88;78.88;97987.63;5050906;28;20032;-79
2022/12/07 06:21:47;;;;;;;21.83;9.75;;;;;;;1.84;77.96;97986.47;5051856;28;20028;-79
2022/12/07 06:24:14;;;;;;;19.35;9.77;;;;;;;1.83;78.28;97979.44;5052917;28;20044;-79
2022/12/07 06:26:41;;;;;;;21.88;10.07;;;;;;;1.78;78.29;97985.59;5052860;28;20036;-79
2022/12/07 06:29:07;;;;;;;14.55;8.23;;;;;;;1.78;78.99;97990.19;5052399;28;20110;-79
2022/12/07 06:31:32;;;;;;;15.85;8.68;;;;;;;1.77;79.04;97999.38;5052209;28;20497;-79
2022/12/07 06:34:02;;;;;;;16.52;10.00;;;;;;;1.75;78.95;97998.78;5051853;28;20485;-79
2022/12/07 06:36:28;;;;;;;14.07;8.15;;;;;;;1.73;78.73;97993.66;5051905;28;20029;-79
2022/12/07 06:38:54;;;;;;;16.63;9.25;;;;;;;1.73;78.46;97996.34;5051113;28;20396;-79
2022/12/07 06:41:20;;;;;;;15.05;9.07;;;;;;;1.74;78.51;98005.28;5051087;28;20074;-79
2022/12/07 06:43:46;;;;;;;15.65;8.32;;;;;;;1.76;78.79;98003.97;5052459;28;20017;-79
2022/12/07 06:46:13;;;;;;;17.48;9.27;;;;;;;1.74;78.71;97995.28;5052570;28;20306;-79
2022/12/07 06:48:38;;;;;;;13.88;7.15;;;;;;;1.74;79.22;97997.16;5051475;28;20381;-79
2022/12/07 06:51:03;;;;;;;13.48;7.78;;;;;;;1.74;78.66;98000.69;5051190;28;20116;-79
2022/12/07 06:53:29;;;;;;;17.40;9.10;;;;;;;1.73;78.58;97999.06;5052048;28;20489;-79
2022/12/07 06:55:54;;;;;;;17.85;10.60;;;;;;;1.73;78.82;98009.88;5052327;28;20044;-79
2022/12/07 06:58:20;;;;;;;16.65;9.02;;;;;;;1.75;79.18;98001.50;5052130;28;20470;-79
2022/12/07 07:00:45;;;;;;;16.40;8.57;;;;;;;1.76;78.66;98005.84;5051779;28;20029;-79
2022/12/07 07:03:10;;;;;;;20.13;11.50;;;;;;;1.75;78.86;98004.19;5052027;28;20029;-79
2022/12/07 07:05:36;;;;;;;15.15;8.65;;;;;;;1.75;79.50;97996.94;5051858;28;20420;-79
2022/12/07 07:08:02;;;;;;;21.85;12.35;;;;;;;1.74;78.49;97999.88;5051689;28;20044;-79
2022/12/07 07:10:28;;;;;;;16.02;8.80;;;;;;;1.72;79.20;98007.41;5050969;28;20059;-79
2022/12/07 07:12:53;;;;;;;12.95;7.60;;;;;;;1.72;79.16;98002.00;5050966;28;20025;-79
2022/12/07 07:15:18;;;;;;;14.98;8.00;;;;;;;1.72;78.77;97996.59;5051281;28;20386;-79
2022/12/07 07:17:44;;;;;;;19.17;10.88;;;;;;;1.73;78.88;98004.47;5050675;28;20088;-79
2022/12/07 07:20:10;;;;;;;21.83;12.23;;;;;;;1.76;78.68;98003.13;5051475;28;20025;-79
2022/12/07 07:22:35;;;;;;;20.70;10.00;;;;;;;1.78;79.44;97999.13;5051835;28;20025;-79
2022/12/07 07:25:01;;;;;;;16.67;9.63;;;;;;;1.82;78.81;98004.03;5051299;28;20021;-79
2022/12/07 07:27:26;;;;;;;13.27;8.32;;;;;;;1.85;78.90;98000.81;5051528;28;20071;-79
2022/12/07 07:29:52;;;;;;;16.17;9.05;;;;;;;1.88;78.85;97993.03;5051737;28;20040;-79
2022/12/07 07:32:17;;;;;;;16.15;8.93;;;;;;;1.90;79.31;97999.00;5050090;28;20032;-79
2022/12/07 07:34:42;;;;;;;14.15;8.38;;;;;;;1.95;79.57;97994.72;5051457;28;20473;-79
2022/12/07 07:37:08;;;;;;;15.45;8.23;;;;;;;1.98;79.12;97995.03;5051219;28;20095;-79
2022/12/07 07:39:33;;;;;;;15.98;8.25;;;;;;;2.00;78.82;97995.59;5050876;28;20034;-79
2022/12/07 07:41:58;;;;;;;13.60;7.80;;;;;;;2.03;79.00;97991.59;5050778;28;20104;-79
2022/12/07 07:44:24;;;;;;;14.57;7.40;;;;;;;2.05;79.58;97982.16;5051291;28;20428;-79
2022/12/07 07:46:49;;;;;;;17.48;10.38;;;;;;;2.09;79.73;97985.16;5051330;28;20033;-79
2022/12/07 07:49:14;;;;;;;17.05;10.20;;;;;;;2.16;79.64;97984.97;5049340;28;20028;-79
2022/12/07 07:51:40;;;;;;;16.90;11.57;;;;;;;2.23;79.64;97994.53;5050372;28;20029;-79
2022/12/07 07:54:05;;;;;;;23.67;12.75;;;;;;;2.28;79.27;97990.25;5051296;28;20068;-79
2022/12/07 07:56:30;;;;;;;24.05;14.60;;;;;;;2.29;78.80;97995.38;5051042;28;20115;-79
2022/12/07 07:58:56;;;;;;;25.20;14.25;;;;;;;2.28;79.30;98001.06;5050810;28;20048;-79
2022/12/07 08:01:21;;;;;;;24.65;14.20;;;;;;;2.28;78.85;98001.88;5050231;28;20051;-79
2022/12/07 08:03:47;;;;;;;20.85;12.68;;;;;;;2.33;79.64;98007.34;5049563;28;20021;-79
2022/12/07 08:06:13;;;;;;;22.98;13.40;;;;;;;2.32;79.16;98002.19;5050816;28;20473;-79
2022/12/07 08:08:38;;;;;;;21.70;13.98;;;;;;;2.34;79.16;98005.47;5050791;28;20533;-79
2022/12/07 08:11:08;;;;;;;23.17;13.98;;;;;;;2.35;78.84;98005.22;5050443;28;20036;-79
2022/12/07 08:13:34;;;;;;;25.23;13.05;;;;;;;2.36;78.99;98003.34;5050411;28;20020;-79
2022/12/07 08:16:04;;;;;;;24.17;13.73;;;;;;;2.40;78.75;98006.34;5049279;28;20518;-79
2022/12/07 08:18:29;;;;;;;;;;;;;;;2.41;78.76;98016.94;5050626;28;20078;-79
2022/12/07 08:21:01;;;;;;;26.42;12.57;;;;;;;2.38;79.23;98012.00;5050276;28;19913;-79
2022/12/07 08:23:26;;;;;;;20.63;11.48;;;;;;;2.38;79.54;98020.94;5050189;28;20481;-79
2022/12/07 08:25:52;;;;;;;25.27;12.80;;;;;;;2.41;78.74;98016.94;5050262;28;20029;-79
2022/12/07 08:28:17;;;;;;;27.00;14.55;;;;;;;2.40;78.99;98025.28;5049226;28;20021;-79
2022/12/07 08:30:42;;;;;;;24.92;13.77;;;;;;;2.41;79.07;98030.47;5048935;28;20112;-79
2022/12/07 08:33:09;;;;;;;29.02;14.88;;;;;;;2.41;78.56;98025.03;5050074;28;20377;-79
2022/12/07 08:35:36;;;;;;;31.65;15.85;;;;;;;2.43;78.87;98033.72;5049550;28;20425;-79
2022/12/07 08:38:02;;;;;;;28.10;14.07;;;;;;;2.44;79.39;98016.41;5050366;28;20027;-79
2022/12/07 08:40:27;;;;;;;28.77;15.15;;;;;;;2.49;79.56;98027.28;5050457;28;20087;-79
2022/12/07 08:42:53;;;;;;;28.83;15.05;;;;;;;2.56;79.39;98029.81;5049937;28;20040;-79
2022/12/07 08:45:20;;;;;;;35.13;19.45;;;;;;;2.63;78.87;98030.44;5050333;28;20021;-79
2022/12/07 08:48:02;;;;;;;30.27;17.27;;;;;;;2.64;79.70;98031.22;5050374;28;20563;-79
2022/12/07 08:50:27;;;;;;;33.58;17.63;;;;;;;2.66;79.20;98024.47;5050007;28;20021;-79
2022/12/07 08:52:56;;;;;;;34.30;17.25;;;;;;;2.70;79.39;98024.81;5049581;28;20043;-79
2022/12/07 08:55:23;;;;;;;32.08;16.85;;;;;;;2.73;79.35;98028.88;5049919;28;20090;-79
2022/12/07 08:57:49;;;;;;;31.40;16.67;;;;;;;2.72;79.43;98021.81;5049777;28;20025;-79
2022/12/07 09:00:16;;;;;;;28.90;15.35;;;;;;;2.70;79.55;98022.09;5049173;28;20071;-79
2022/12/07 09:02:44;;;;;;;25.98;14.30;;;;;;;2.70;79.31;98027.50;5049964;28;20064;-78
2022/12/07 09:05:10;;;;;;;28.08;14.68;;;;;;;2.71;79.77;98012.06;5049729;28;20039;-79
2022/12/07 09:07:37;;;;;;;28.95;17.33;;;;;;;2.73;79.54;98012.63;5050031;28;20108;-79
2022/12/07 09:10:03;;;;;;;39.85;22.48;;;;;;;2.74;78.95;98016.97;5049628;28;20037;-79
2022/12/07 09:12:28;;;;;;;37.60;21.17;;;;;;;2.76;79.55;98006.69;5049547;28;20056;-79
2022/12/07 09:14:54;;;;;;;42.55;20.08;;;;;;;2.79;79.38;98009.72;5049361;28;20054;-79
2022/12/07 09:17:19;;;;;;;35.47;19.05;;;;;;;2.80;79.46;98005.13;5049999;28;20033;-79
2022/12/07 09:19:44;;;;;;;43.03;21.90;;;;;;;2.85;79.44;98002.47;5049515;28;20060;-79
2022/12/07 09:22:10;;;;;;;37.58;19.92;;;;;;;2.91;79.08;98009.56;5049608;28;20033;-79
2022/12/07 09:24:36;;;;;;;42.22;22.40;;;;;;;2.95;78.75;98001.72;5049255;28;20524;-79
2022/12/07 09:27:01;;;;;;;34.55;19.00;;;;;;;3.00;78.92;97998.25;5049762;28;20033;-79
2022/12/07 09:29:26;;;;;;;36.58;20.58;;;;;;;3.05;79.39;97988.28;5049595;28;20389;-79
2022/12/07 09:31:52;;;;;;;28.10;15.90;;;;;;;3.08;79.06;97997.75;5049288;28;20032;-79
2022/12/07 09:34:18;;;;;;;29.98;18.15;;;;;;;3.14;79.24;97996.72;5049254;28;20082;-78
2022/12/07 09:36:43;;;;;;;32.08;17.58;;;;;;;3.17;79.52;97992.72;5049572;28;20466;-79
2022/12/07 09:39:09;;;;;;;28.73;18.85;;;;;;;3.18;78.69;97992.44;5048104;28;20021;-79
2022/12/07 09:41:39;;;;;;;20.70;11.93;;;;;;;3.21;78.64;97978.38;5049444;28;20033;-79
2022/12/07 09:44:09;;;;;;;20.88;12.73;;;;;;;3.21;79.21;97980.28;5049816;28;20065;-79
2022/12/07 09:46:39;;;;;;;21.77;13.55;;;;;;;3.22;78.62;97974.56;5047813;28;20135;-78
2022/12/07 09:49:09;;;;;;;23.73;15.88;;;;;;;3.30;79.61;97969.75;5049221;28;20044;-78
2022/12/07 09:51:35;;;;;;;23.92;14.23;;;;;;;3.37;79.14;97973.88;5048802;28;20040;-78
2022/12/07 09:54:01;;;;;;;22.02;13.73;;;;;;;3.44;79.32;97970.94;5047003;28;20049;-78
2022/12/07 09:56:30;;;;;;;21.23;14.15;;;;;;;3.46;79.19;97968.78;5042737;28;20025;-77
2022/12/07 09:59:01;;;;;;;17.38;11.20;;;;;;;3.50;79.32;97966.34;5052632;28;20024;-77
2022/12/07 10:01:29;;;;;;;18.58;10.77;;;;;;;3.57;79.58;97969.66;5048529;28;20024;-77
2022/12/07 10:04:01;;;;;;;20.42;13.15;;;;;;;3.65;79.67;97960.19;5049654;28;20103;-77
2022/12/07 10:06:27;;;;;;;16.27;11.40;;;;;;;3.72;79.79;97952.66;5050392;28;20037;-77
2022/12/07 10:08:52;;;;;;;14.93;9.70;;;;;;;3.77;79.25;97935.56;5051205;28;20044;-78
2022/12/07 10:11:17;;;;;;;15.80;8.60;;;;;;;3.83;79.17;97938.06;5052917;28;20047;-80
2022/12/07 10:13:47;;;;;;;17.73;10.00;;;;;;;3.91;79.29;97933.19;5047642;28;20025;-79
2022/12/07 10:16:39;;;;;;;16.52;9.43;;;;;;;3.96;78.71;97944.88;5050131;28;20055;-79
2022/12/07 10:19:24;;;;;;;12.35;7.82;;;;;;;3.96;78.89;97927.78;5049170;28;20045;-78
2022/12/07 10:22:12;;;;;;;11.45;6.88;;;;;;;3.93;78.84;97925.59;5052220;28;20052;-79
2022/12/07 10:24:43;;;;;;;14.75;9.95;;;;;;;3.90;78.09;97929.66;5052630;28;20043;-79
2022/12/07 10:27:31;;;;;;;16.10;9.13;;;;;;;3.87;79.04;97925.56;5052780;28;20029;-77
2022/12/07 10:29:58;;;;;;;24.65;12.82;;;;;;;3.88;78.29;97920.97;5049287;28;20055;-81
2022/12/07 10:32:34;;;;;;;18.98;11.25;;;;;;;3.89;78.24;97917.19;5051711;28;20021;-79
2022/12/07 10:35:22;;;;;;;32.15;15.95;;;;;;;3.85;78.65;97913.38;5050726;28;20588;-76
2022/12/07 10:37:48;;;;;;;16.80;9.68;;;;;;;3.80;77.63;97919.59;5050279;28;20041;-77
2022/12/07 10:40:29;;;;;;;13.85;8.70;;;;;;;3.73;78.47;97913.59;5048217;28;20450;-74
2022/12/07 10:43:11;;;;;;;15.38;8.93;;;;;;;3.68;78.15;97916.28;5050406;28;20029;-78
2022/12/07 10:45:50;;;;;;;18.92;10.40;;;;;;;3.61;77.62;97918.41;5052155;28;20029;-78
2022/12/07 10:48:37;;;;;;;12.93;8.50;;;;;;;3.58;77.67;97909.72;5048434;28;20028;-78
2022/12/07 10:51:09;;;;;;;13.65;10.25;;;;;;;3.56;77.93;97906.47;5051707;28;20636;-77
2022/12/07 10:53:52;;;;;;;15.02;10.32;;;;;;;3.50;77.78;97904.81;5052237;28;20617;-79
2022/12/07 10:56:40;;;;;;;16.58;11.73;;;;;;;3.51;78.32;97913.75;5047793;28;20025;-76
2022/12/07 10:59:33;;;;;;;17.98;10.95;;;;;;;3.50;77.87;97918.34;5049422;28;20040;-79
2022/12/07 11:02:30;;;;;;;24.58;12.85;;;;;;;3.45;77.79;97914.81;5048693;28;20049;-79
2022/12/07 11:05:28;;;;;;;13.93;8.15;;;;;;;3.44;78.17;97911.31;5048762;28;20039;-80
2022/12/07 11:08:11;;;;;;;24.13;13.18;;;;;;;3.45;77.29;97918.34;5041868;28;20045;-80
2022/12/07 11:11:01;;;;;;;20.45;10.30;;;;;;;3.41;77.82;97911.81;5049235;28;20114;-79
2022/12/07 11:13:56;;;;;;;14.35;9.90;;;;;;;3.43;77.73;97904.25;5050122;28;20029;-79
2022/12/07 11:16:25;;;;;;;11.43;7.85;;;;;;;3.47;77.85;97909.94;5049706;28;20060;-80
2022/12/07 11:18:53;;;;;;;10.82;7.68;;;;;;;3.50;77.34;97898.56;5051301;28;20167;-80
2022/12/07 11:21:36;;;;;;;10.32;7.50;;;;;;;3.54;77.98;97896.97;5051527;28;20041;-79
2022/12/07 11:24:02;;;;;;;10.02;6.07;;;;;;;3.59;77.77;97894.28;5051550;28;20432;-79
2022/12/07 11:26:49;;;;;;;9.15;6.30;;;;;;;3.64;77.87;97888.06;5051572;28;20414;-80
2022/12/07 11:29:42;;;;;;;10.07;6.50;;;;;;;3.69;76.48;97878.03;5048918;28;20063;-81
2022/12/07 11:32:41;;;;;;;12.27;6.97;;;;;;;3.68;77.25;97879.13;5050464;28;20040;-80
2022/12/07 11:35:28;;;;;;;10.32;6.40;;;;;;;3.67;76.77;97866.63;5050822;28;20031;-81
2022/12/07 11:38:32;;;;;;;10.88;6.00;;;;;;;3.66;77.10;97872.34;5050803;28;20029;-80
2022/12/07 11:41:12;;;;;;;11.05;7.03;;;;;;;3.67;76.52;97874.78;5008564;28;20426;-81
2022/12/07 11:44:02;;;;;;;10.68;7.05;;;;;;;3.66;76.08;97870.47;5008698;28;20516;-82
2022/12/07 11:46:40;;;;;;;10.52;6.88;;;;;;;3.65;76.81;97874.25;5025875;28;20485;-82